Time;durP1;ratioP1;P1;durP2;ratioP2;P2;SDS_P1;SDS_P2;PMS_P1;PMS_P2;Temp;Humidity;BMP_temperature;BMP_pressure;BME280_temperature;BME280_humidity;BME280_pressure;Samples;Min_cycle;Max_cycle;Signal;HPM_P1;HPM_P2
2023/04/20 00:00:10;;;;;;;3.63;2.85;;;12.90;99.90;;;;;;5113692;28;20242;-72
2023/04/20 00:02:37;;;;;;;5.97;3.33;;;12.90;99.90;;;;;;5113368;28;20220;-71
2023/04/20 00:05:07;;;;;;;5.60;2.47;;;12.70;99.90;;;;;;5112994;28;20207;-71
2023/04/20 00:07:34;;;;;;;3.35;2.90;;;12.70;99.90;;;;;;5113790;28;20196;-74
2023/04/20 00:10:01;;;;;;;5.53;2.30;;;12.70;99.90;;;;;;5112960;28;20237;-74
2023/04/20 00:12:28;;;;;;;4.93;2.35;;;12.80;99.90;;;;;;5113000;28;20325;-74
2023/04/20 00:14:55;;;;;;;4.88;2.40;;;12.60;99.90;;;;;;5112589;28;20723;-76
2023/04/20 00:17:22;;;;;;;5.28;2.50;;;12.50;99.90;;;;;;5112659;28;20232;-72
2023/04/20 00:19:49;;;;;;;2.50;2.30;;;12.60;99.90;;;;;;5112781;28;20232;-71
2023/04/20 00:22:17;;;;;;;3.53;2.10;;;12.60;99.90;;;;;;5112081;28;20205;-72
2023/04/20 00:24:44;;;;;;;2.80;2.00;;;12.60;99.90;;;;;;5112590;28;20247;-72
2023/04/20 00:27:11;;;;;;;2.88;2.08;;;12.40;99.90;;;;;;5112932;28;20239;-72
2023/04/20 00:29:38;;;;;;;2.75;2.33;;;12.50;99.90;;;;;;5113107;28;20211;-75
2023/04/20 00:32:05;;;;;;;9.30;3.40;;;12.50;99.90;;;;;;5112524;28;20618;-75
2023/04/20 00:34:32;;;;;;;3.90;2.00;;;12.50;99.90;;;;;;5112790;28;20281;-74
2023/04/20 00:36:59;;;;;;;4.20;1.98;;;12.50;99.90;;;;;;5112442;28;20652;-74
2023/04/20 00:39:27;;;;;;;2.65;2.00;;;12.40;99.90;;;;;;5112680;28;20235;-74
2023/04/20 00:41:54;;;;;;;2.08;1.73;;;12.30;99.90;;;;;;5111960;28;20240;-73
2023/04/20 00:44:21;;;;;;;3.50;2.08;;;12.40;99.90;;;;;;5112402;28;20232;-75
2023/04/20 00:46:52;;;;;;;4.50;2.13;;;12.40;99.90;;;;;;5111999;28;20236;-75
2023/04/20 00:49:19;;;;;;;3.50;2.30;;;12.30;99.90;;;;;;5112408;28;20575;-73
2023/04/20 00:51:46;;;;;;;2.88;2.67;;;12.20;99.90;;;;;;5111961;28;20299;-74
2023/04/20 00:54:13;;;;;;;6.28;2.70;;;12.10;99.90;;;;;;5112018;28;20263;-75
2023/04/20 00:56:42;;;;;;;3.97;2.30;;;12.20;99.90;;;;;;5112159;28;20236;-74
2023/04/20 00:59:10;;;;;;;3.33;2.92;;;12.20;99.90;;;;;;5112516;28;20236;-74
2023/04/20 01:01:37;;;;;;;2.55;2.28;;;12.20;99.90;;;;;;5112234;28;20653;-74
2023/04/20 01:04:04;;;;;;;2.53;2.28;;;12.20;99.90;;;;;;5112205;28;20201;-74
2023/04/20 01:06:31;;;;;;;4.82;2.47;;;12.20;99.90;;;;;;5112035;28;20224;-74
2023/04/20 01:08:58;;;;;;;2.25;1.77;;;12.10;99.90;;;;;;5111663;28;20209;-75
2023/04/20 01:11:25;;;;;;;3.15;2.35;;;12.00;99.90;;;;;;5111666;28;20582;-74
2023/04/20 01:13:53;;;;;;;2.08;1.85;;;12.10;99.90;;;;;;5111746;28;20228;-75
2023/04/20 01:16:21;;;;;;;2.97;2.10;;;12.00;99.90;;;;;;5111908;28;20637;-74
2023/04/20 01:18:50;;;;;;;2.72;2.53;;;11.80;99.90;;;;;;5111482;28;20216;-75
2023/04/20 01:21:20;;;;;;;2.00;1.80;;;11.70;99.90;;;;;;5111888;28;20232;-74
2023/04/20 01:23:48;;;;;;;6.35;2.78;;;11.70;99.90;;;;;;5111363;28;20248;-74
2023/04/20 01:26:17;;;;;;;3.45;1.92;;;11.70;99.90;;;;;;5111717;28;20237;-74
2023/04/20 01:28:44;;;;;;;3.15;2.83;;;11.80;99.90;;;;;;5111473;28;20235;-73
2023/04/20 01:31:11;;;;;;;6.78;2.30;;;11.80;99.90;;;;;;5111498;28;20232;-73
2023/04/20 01:33:39;;;;;;;6.07;2.78;;;11.80;99.90;;;;;;5111622;28;20251;-73
2023/04/20 01:36:07;;;;;;;7.60;3.13;;;11.70;99.90;;;;;;5111676;28;20287;-74
2023/04/20 01:38:35;;;;;;;4.85;3.20;;;11.70;99.90;;;;;;5111834;28;20205;-74
2023/04/20 01:41:05;;;;;;;4.63;2.63;;;11.70;99.90;;;;;;5111229;28;20227;-74
2023/04/20 01:43:34;;;;;;;4.65;3.00;;;11.70;99.90;;;;;;5111505;28;20300;-73
2023/04/20 01:46:01;;;;;;;6.22;2.83;;;11.50;99.90;;;;;;5110958;28;20687;-73
2023/04/20 01:48:28;;;;;;;3.63;2.45;;;11.60;99.90;;;;;;5111331;28;20243;-74
2023/04/20 01:50:55;;;;;;;3.47;2.63;;;11.70;99.90;;;;;;5110903;28;20231;-74
2023/04/20 01:53:24;;;;;;;4.18;3.28;;;11.70;99.90;;;;;;5111529;28;20216;-74
2023/04/20 01:55:51;;;;;;;3.83;2.80;;;11.60;99.90;;;;;;5110840;28;20232;-74
2023/04/20 01:58:19;;;;;;;4.20;3.80;;;11.60;99.90;;;;;;5111520;28;20236;-75
2023/04/20 02:00:46;;;;;;;4.20;2.92;;;11.60;99.90;;;;;;5110903;28;20680;-75
2023/04/20 02:03:13;;;;;;;6.20;3.95;;;11.60;99.90;;;;;;5111175;28;20672;-75
2023/04/20 02:05:40;;;;;;;4.38;3.17;;;11.40;99.90;;;;;;5111057;28;20663;-74
2023/04/20 02:08:07;;;;;;;6.22;3.17;;;11.50;99.90;;;;;;5111503;28;20701;-74
2023/04/20 02:10:34;;;;;;;7.22;2.90;;;11.50;99.90;;;;;;5111338;28;20212;-74
2023/04/20 02:13:01;;;;;;;4.80;3.63;;;11.30;99.90;;;;;;5110742;28;20209;-74
2023/04/20 02:15:30;;;;;;;4.50;3.83;;;11.30;99.90;;;;;;5111099;28;20241;-74
2023/04/20 02:17:57;;;;;;;3.92;3.30;;;11.20;99.90;;;;;;5110482;28;20204;-75
2023/04/20 02:20:24;;;;;;;5.15;2.92;;;11.10;99.90;;;;;;5110970;28;20754;-74
2023/04/20 02:22:51;;;;;;;2.93;2.67;;;10.80;99.90;;;;;;5110906;28;20239;-75
2023/04/20 02:25:18;;;;;;;6.15;3.60;;;10.80;99.90;;;;;;5111177;28;20386;-75
2023/04/20 02:27:45;;;;;;;3.20;2.90;;;10.90;99.90;;;;;;5110421;28;20240;-75
2023/04/20 02:30:13;;;;;;;2.70;2.47;;;11.00;99.90;;;;;;5110698;28;20648;-72
2023/04/20 02:32:41;;;;;;;2.63;2.43;;;11.10;99.90;;;;;;5111012;28;20236;-72
2023/04/20 02:35:08;;;;;;;4.40;2.50;;;11.10;99.90;;;;;;5111634;28;20321;-75
2023/04/20 02:37:35;;;;;;;2.73;2.53;;;11.10;99.90;;;;;;5111171;28;20243;-74
2023/04/20 02:40:03;;;;;;;3.10;2.00;;;11.10;99.90;;;;;;5110647;28;20239;-74
2023/04/20 02:42:30;;;;;;;4.95;2.60;;;11.00;99.90;;;;;;5110734;28;20230;-75
2023/04/20 02:44:57;;;;;;;3.03;2.57;;;10.80;99.90;;;;;;5110491;28;20228;-74
2023/04/20 02:47:24;;;;;;;5.50;2.33;;;10.70;99.90;;;;;;5114175;28;20258;-75
2023/04/20 02:49:52;;;;;;;4.80;2.42;;;10.90;99.90;;;;;;5114553;28;20228;-72
2023/04/20 02:52:19;;;;;;;3.30;2.15;;;10.90;99.90;;;;;;5114716;28;20653;-73
2023/04/20 02:54:46;;;;;;;4.32;2.50;;;10.90;99.90;;;;;;5114202;28;20340;-74
2023/04/20 02:57:13;;;;;;;2.08;1.67;;;10.90;99.90;;;;;;5114456;28;20201;-74
2023/04/20 02:59:40;;;;;;;2.80;2.57;;;10.90;99.90;;;;;;5114445;28;20225;-73
2023/04/20 03:02:07;;;;;;;3.40;3.00;;;10.90;99.90;;;;;;5115025;28;20250;-73
2023/04/20 03:04:34;;;;;;;4.27;2.60;;;10.80;99.90;;;;;;5114867;28;20205;-72
2023/04/20 03:07:03;;;;;;;3.03;2.73;;;10.80;99.90;;;;;;5113979;28;20224;-74
2023/04/20 03:09:30;;;;;;;4.10;2.50;;;10.70;99.90;;;;;;5114486;28;20197;-73
2023/04/20 03:11:57;;;;;;;5.50;2.57;;;10.70;99.90;;;;;;5113588;28;20273;-74
2023/04/20 03:14:24;;;;;;;5.63;2.30;;;10.70;99.90;;;;;;5114114;28;20229;-74
2023/04/20 03:16:51;;;;;;;4.93;2.87;;;10.80;99.90;;;;;;5114116;28;20295;-74
2023/04/20 03:19:18;;;;;;;3.80;2.17;;;10.80;99.90;;;;;;5114345;28;20243;-73
2023/04/20 03:21:45;;;;;;;4.57;2.37;;;10.70;99.90;;;;;;5113759;28;20691;-75
2023/04/20 03:24:15;;;;;;;8.50;2.80;;;10.60;99.90;;;;;;5114157;28;20259;-75
2023/04/20 03:26:42;;;;;;;3.40;2.20;;;10.60;99.90;;;;;;5113369;28;20632;-72
2023/04/20 03:29:09;;;;;;;3.03;2.43;;;10.50;99.90;;;;;;5114079;28;20236;-72
2023/04/20 03:31:36;;;;;;;5.93;2.63;;;10.70;99.90;;;;;;5114431;28;20240;-74
2023/04/20 03:34:03;;;;;;;3.60;3.17;;;10.70;99.90;;;;;;5113714;28;20233;-74
2023/04/20 03:36:31;;;;;;;3.43;2.67;;;10.70;99.90;;;;;;5113797;28;20244;-74
2023/04/20 03:38:58;;;;;;;4.00;2.80;;;10.70;99.90;;;;;;5113547;28;20197;-73
2023/04/20 03:41:26;;;;;;;3.50;2.67;;;10.70;99.90;;;;;;5113344;28;20660;-74
2023/04/20 03:43:53;;;;;;;4.00;2.93;;;10.60;99.90;;;;;;5113635;28;20235;-72
2023/04/20 03:46:20;;;;;;;4.33;2.60;;;10.60;99.90;;;;;;5113746;28;20240;-72
2023/04/20 03:48:47;;;;;;;4.33;3.10;;;10.60;99.90;;;;;;5113322;28;20241;-72
2023/04/20 03:51:14;;;;;;;3.37;2.70;;;10.60;99.90;;;;;;5113471;28;20239;-72
2023/04/20 03:53:41;;;;;;;7.67;3.47;;;10.50;99.90;;;;;;5113176;28;20204;-72
2023/04/20 03:56:08;;;;;;;4.60;2.67;;;10.30;99.90;;;;;;5113387;28;20784;-72
2023/04/20 03:58:36;;;;;;;3.80;2.80;;;10.20;99.90;;;;;;5113799;28;20244;-73
2023/04/20 04:01:05;;;;;;;4.70;2.87;;;10.20;99.90;;;;;;5113106;28;20249;-73
2023/04/20 04:03:33;;;;;;;5.43;3.90;;;10.20;99.90;;;;;;5113448;28;20270;-74
2023/04/20 04:06:00;;;;;;;4.40;2.80;;;10.20;99.90;;;;;;5112640;28;20661;-72
2023/04/20 04:08:27;;;;;;;4.93;3.20;;;10.20;99.90;;;;;;5113163;28;20201;-74
2023/04/20 04:10:54;;;;;;;4.33;3.07;;;10.20;99.90;;;;;;5112400;28;20244;-75
2023/04/20 04:13:20;;;;;;;5.17;2.80;;;10.20;99.90;;;;;;5113250;28;20232;-75
2023/04/20 04:15:49;;;;;;;7.50;3.57;;;10.00;99.90;;;;;;5112770;28;20277;-74
2023/04/20 04:18:16;;;;;;;6.53;3.53;;;10.00;99.90;;;;;;5112910;28;20197;-74
2023/04/20 04:20:43;;;;;;;5.07;3.33;;;10.10;99.90;;;;;;5112605;28;20690;-73
2023/04/20 04:23:10;;;;;;;4.07;3.07;;;10.20;99.90;;;;;;5112675;28;20232;-73
2023/04/20 04:25:38;;;;;;;4.30;3.43;;;10.10;99.90;;;;;;5113112;28;20570;-74
2023/04/20 04:28:06;;;;;;;3.60;3.30;;;9.80;99.90;;;;;;5112753;28;20664;-75
2023/04/20 04:30:33;;;;;;;6.80;3.87;;;9.80;99.90;;;;;;5112844;28;20228;-74
2023/04/20 04:33:03;;;;;;;2.93;2.43;;;9.80;99.90;;;;;;5112420;28;20996;-74
2023/04/20 04:35:30;;;;;;;4.23;3.37;;;9.90;99.90;;;;;;5112547;28;20294;-72
2023/04/20 04:37:57;;;;;;;3.97;3.33;;;9.90;99.90;;;;;;5112003;28;20627;-72
2023/04/20 04:40:24;;;;;;;4.33;3.13;;;9.70;99.90;;;;;;5112508;28;20688;-72
2023/04/20 04:42:51;;;;;;;6.13;3.37;;;9.80;99.90;;;;;;5112160;28;20201;-74
2023/04/20 04:45:18;;;;;;;4.20;3.60;;;9.80;99.90;;;;;;5112540;28;20201;-73
2023/04/20 04:47:45;;;;;;;4.20;3.53;;;9.80;99.90;;;;;;5112098;28;20239;-74
2023/04/20 04:50:13;;;;;;;10.43;4.70;;;9.90;99.90;;;;;;5112263;28;20694;-73
2023/04/20 04:52:40;;;;;;;5.47;3.17;;;10.00;99.90;;;;;;5112298;28;20212;-73
2023/04/20 04:55:08;;;;;;;8.83;3.30;;;10.00;99.90;;;;;;5112454;28;20260;-72
2023/04/20 04:57:37;;;;;;;3.10;2.80;;;10.00;99.90;;;;;;5112055;28;20577;-74
2023/04/20 05:00:08;;;;;;;4.10;3.27;;;9.90;99.90;;;;;;5111888;28;20205;-71
2023/04/20 05:02:35;;;;;;;5.27;3.53;;;9.80;99.90;;;;;;5111957;28;20291;-74
2023/04/20 05:05:02;;;;;;;7.97;3.43;;;9.80;99.90;;;;;;5111923;28;20205;-73
2023/04/20 05:07:30;;;;;;;6.40;3.70;;;9.80;99.90;;;;;;5112238;28;20205;-72
2023/04/20 05:09:57;;;;;;;4.77;3.03;;;9.80;99.90;;;;;;5111305;28;20196;-74
2023/04/20 05:12:25;;;;;;;5.60;3.73;;;9.80;99.90;;;;;;5111560;28;20244;-74
2023/04/20 05:14:52;;;;;;;5.23;3.20;;;9.70;99.90;;;;;;5111481;28;20208;-74
2023/04/20 05:17:19;;;;;;;4.70;3.43;;;9.60;99.90;;;;;;5111798;28;20239;-74
2023/04/20 05:19:46;;;;;;;3.70;3.17;;;9.40;99.90;;;;;;5111572;28;20203;-73
2023/04/20 05:22:13;;;;;;;4.67;4.17;;;9.60;99.90;;;;;;5111553;28;20205;-74
2023/04/20 05:24:41;;;;;;;6.30;3.97;;;9.60;99.90;;;;;;5111587;28;20660;-73
2023/04/20 05:27:08;;;;;;;6.87;4.27;;;9.60;99.90;;;;;;5111929;28;20664;-74
2023/04/20 05:29:35;;;;;;;5.17;3.80;;;9.60;99.90;;;;;;5111940;28;20211;-73
2023/04/20 05:32:02;;;;;;;10.03;5.17;;;9.60;99.90;;;;;;5111253;28;20250;-73
2023/04/20 05:34:29;;;;;;;5.87;3.37;;;9.70;99.90;;;;;;5111452;28;20670;-74
2023/04/20 05:36:58;;;;;;;8.57;4.60;;;9.70;99.90;;;;;;5110804;28;20297;-74
2023/04/20 05:39:25;;;;;;;3.77;3.43;;;9.80;99.90;;;;;;5111647;28;20201;-73
2023/04/20 05:41:53;;;;;;;7.70;4.17;;;9.90;99.90;;;;;;5110937;28;20243;-73
2023/04/20 05:44:20;;;;;;;6.10;4.20;;;10.00;99.90;;;;;;5111378;28;20286;-72
2023/04/20 05:46:47;;;;;;;4.50;3.67;;;9.90;99.90;;;;;;5111008;28;20737;-73
2023/04/20 05:49:14;;;;;;;4.80;4.30;;;10.00;99.90;;;;;;5111553;28;20640;-74
2023/04/20 05:51:41;;;;;;;10.60;4.67;;;10.10;99.90;;;;;;5111006;28;20244;-72
2023/04/20 05:54:08;;;;;;;11.33;5.97;;;10.20;99.90;;;;;;5111737;28;20228;-73
2023/04/20 05:56:35;;;;;;;11.03;6.77;;;10.10;99.90;;;;;;5111522;28;20239;-74
2023/04/20 05:59:04;;;;;;;14.03;5.53;;;10.10;99.90;;;;;;5110852;28;20236;-73
2023/04/20 06:01:31;;;;;;;10.23;5.27;;;10.20;99.90;;;;;;5111209;28;20266;-75
2023/04/20 06:03:58;;;;;;;8.27;6.43;;;10.20;99.90;;;;;;5110837;28;20232;-73
2023/04/20 06:06:25;;;;;;;12.00;4.97;;;10.20;99.90;;;;;;5111051;28;20231;-74
2023/04/20 06:08:52;;;;;;;10.27;5.73;;;10.20;99.90;;;;;;5110733;28;20200;-75
2023/04/20 06:11:19;;;;;;;8.33;5.40;;;10.50;99.90;;;;;;5111078;28;20258;-74
2023/04/20 06:13:46;;;;;;;6.13;5.10;;;10.60;99.90;;;;;;5110813;28;20656;-74
2023/04/20 06:16:14;;;;;;;10.17;5.23;;;10.70;99.90;;;;;;5111153;28;20332;-75
2023/04/20 06:18:41;;;;;;;8.93;4.60;;;10.60;99.90;;;;;;5110614;28;20200;-72
2023/04/20 06:21:10;;;;;;;5.43;4.73;;;10.60;99.90;;;;;;5112632;28;20672;-73
2023/04/20 06:23:37;;;;;;;13.67;6.30;;;10.80;99.90;;;;;;5115619;28;20261;-74
2023/04/20 06:26:07;;;;;;;8.40;4.93;;;10.70;99.90;;;;;;5114814;28;20567;-73
2023/04/20 06:28:34;;;;;;;7.67;4.63;;;10.90;99.90;;;;;;5115232;28;20201;-74
2023/04/20 06:31:01;;;;;;;9.23;5.47;;;10.90;99.90;;;;;;5114834;28;20240;-73
2023/04/20 06:33:29;;;;;;;5.90;4.33;;;11.10;99.90;;;;;;5115164;28;20232;-74
2023/04/20 06:35:57;;;;;;;5.47;4.57;;;11.30;99.90;;;;;;5114309;28;20221;-74
2023/04/20 06:38:24;;;;;;;13.90;6.37;;;11.40;99.90;;;;;;5114855;28;20660;-74
2023/04/20 06:40:51;;;;;;;8.73;4.90;;;11.40;99.90;;;;;;5114750;28;20292;-73
2023/04/20 06:43:18;;;;;;;14.80;4.47;;;11.50;99.90;;;;;;5114977;28;20232;-73
2023/04/20 06:45:45;;;;;;;6.97;5.13;;;11.60;99.90;;;;;;5114349;28;20240;-73
2023/04/20 06:48:12;;;;;;;11.27;5.13;;;11.70;99.90;;;;;;5114545;28;20212;-73
2023/04/20 06:50:40;;;;;;;6.40;4.70;;;11.90;99.90;;;;;;5114668;28;20228;-71
2023/04/20 06:53:07;;;;;;;9.47;4.57;;;12.00;99.90;;;;;;5115022;28;20240;-73
2023/04/20 06:55:34;;;;;;;7.60;4.57;;;12.00;99.90;;;;;;5115071;28;20229;-73
2023/04/20 06:58:01;;;;;;;6.38;5.03;;;12.10;99.90;;;;;;5114320;28;20240;-73
2023/04/20 07:00:28;;;;;;;6.27;4.37;;;12.00;99.90;;;;;;5114461;28;20700;-71
2023/04/20 07:02:55;;;;;;;6.40;4.13;;;12.20;99.90;;;;;;5113926;28;20239;-72
2023/04/20 07:05:22;;;;;;;5.78;3.97;;;12.10;99.90;;;;;;5114806;28;20240;-74
2023/04/20 07:07:50;;;;;;;3.97;3.42;;;12.30;99.90;;;;;;5114257;28;20228;-74
2023/04/20 07:10:17;;;;;;;6.10;3.30;;;12.30;99.90;;;;;;5114416;28;20201;-72
2023/04/20 07:12:44;;;;;;;8.82;4.43;;;12.60;99.90;;;;;;5113954;28;20205;-72
2023/04/20 07:15:12;;;;;;;6.65;3.70;;;12.80;99.90;;;;;;5114324;28;20239;-73
2023/04/20 07:17:39;;;;;;;4.70;2.78;;;13.00;99.90;;;;;;5114182;28;20236;-71
2023/04/20 07:20:07;;;;;;;5.00;3.40;;;12.90;99.90;;;;;;5114141;28;20204;-74
2023/04/20 07:22:35;;;;;;;7.35;2.88;;;13.10;99.90;;;;;;5114461;28;20661;-72
2023/04/20 07:25:04;;;;;;;5.13;2.88;;;13.40;99.90;;;;;;5113905;28;20209;-74
2023/04/20 07:27:34;;;;;;;4.63;3.30;;;13.50;99.90;;;;;;5113881;28;20245;-73
2023/04/20 07:30:01;;;;;;;2.90;2.65;;;13.50;99.90;;;;;;5113666;28;20305;-73
2023/04/20 07:32:27;;;;;;;5.15;3.33;;;13.80;99.90;;;;;;5113222;28;20630;-73
2023/04/20 07:34:54;;;;;;;3.92;3.55;;;14.00;99.90;;;;;;5113408;28;20205;-74
2023/04/20 07:37:21;;;;;;;6.57;3.83;;;13.80;99.90;;;;;;5113998;28;20283;-73
2023/04/20 07:39:48;;;;;;;4.20;3.22;;;13.90;99.90;;;;;;5113258;28;20748;-73
2023/04/20 07:42:16;;;;;;;8.25;3.03;;;14.00;99.90;;;;;;5113848;28;20255;-73
2023/04/20 07:44:43;;;;;;;3.72;2.70;;;14.20;99.90;;;;;;5113183;28;20236;-73
2023/04/20 07:47:10;;;;;;;5.50;3.67;;;14.30;99.90;;;;;;5113329;28;20684;-72
2023/04/20 07:49:39;;;;;;;3.47;2.50;;;14.60;99.90;;;;;;5113997;28;20288;-72
2023/04/20 07:52:06;;;;;;;3.92;2.75;;;14.60;99.90;;;;;;5113931;28;20248;-72
2023/04/20 07:54:33;;;;;;;4.65;3.25;;;14.80;99.90;;;;;;5113675;28;20205;-72
2023/04/20 07:57:00;;;;;;;3.28;2.97;;;14.60;99.90;;;;;;5112993;28;20268;-73
2023/04/20 07:59:29;;;;;;;6.95;3.53;;;14.70;99.90;;;;;;5113472;28;20201;-74
2023/04/20 08:02:00;;;;;;;4.25;3.55;;;14.90;99.90;;;;;;5112546;28;20296;-72
2023/04/20 08:04:27;;;;;;;4.13;2.97;;;15.10;99.90;;;;;;5113258;28;20197;-73
2023/04/20 08:06:54;;;;;;;9.73;3.42;;;15.20;99.90;;;;;;5112794;28;20239;-71
2023/04/20 08:09:21;;;;;;;5.25;3.65;;;15.40;99.90;;;;;;5113285;28;20668;-72
2023/04/20 08:11:48;;;;;;;3.33;2.80;;;15.50;99.90;;;;;;5112362;28;20696;-73
2023/04/20 08:14:15;;;;;;;5.10;3.45;;;15.70;99.90;;;;;;5113021;28;20250;-73
2023/04/20 08:16:43;;;;;;;5.55;3.67;;;15.90;99.90;;;;;;5112262;28;20591;-73
2023/04/20 08:19:10;;;;;;;3.60;3.20;;;16.20;99.90;;;;;;5112992;28;20244;-73
2023/04/20 08:21:37;;;;;;;4.60;3.47;;;16.10;99.90;;;;;;5113350;28;20236;-71
2023/04/20 08:24:05;;;;;;;4.57;3.10;;;16.20;99.90;;;;;;5112837;28;20204;-68
2023/04/20 08:26:33;;;;;;;4.88;3.22;;;16.20;99.90;;;;;;5112650;28;20250;-73
2023/04/20 08:29:00;;;;;;;6.25;3.10;;;16.30;99.90;;;;;;5112421;28;20231;-74
2023/04/20 08:31:27;;;;;;;3.20;2.70;;;16.50;99.90;;;;;;5112896;28;20236;-74
2023/04/20 08:33:55;;;;;;;4.10;2.97;;;16.60;99.90;;;;;;5112272;28;20248;-70
2023/04/20 08:36:22;;;;;;;3.13;2.53;;;16.80;99.90;;;;;;5112502;28;20224;-72
2023/04/20 08:38:54;;;;;;;4.35;3.00;;;16.90;99.90;;;;;;5112151;28;20273;-72
2023/04/20 08:41:21;;;;;;;6.80;3.00;;;16.70;99.90;;;;;;5112523;28;20773;-77
2023/04/20 08:43:49;;;;;;;10.82;3.28;;;16.80;99.90;;;;;;5111591;28;20232;-76
2023/04/20 08:46:17;;;;;;;6.75;3.65;;;17.00;99.90;;;;;;5112344;28;20244;-79
2023/04/20 08:48:47;;;;;;;4.65;2.70;;;17.20;99.90;;;;;;5112204;28;20204;-73
2023/04/20 08:51:17;;;;;;;4.18;2.63;;;17.40;99.90;;;;;;5112322;28;20261;-74
2023/04/20 08:53:44;;;;;;;6.20;2.70;;;17.90;99.90;;;;;;5112136;28;20197;-74
2023/04/20 08:56:11;;;;;;;2.65;2.45;;;17.80;99.90;;;;;;5112238;28;20229;-70
2023/04/20 08:58:41;;;;;;;25.38;4.53;;;17.70;99.90;;;;;;5112690;28;20288;-74
2023/04/20 09:01:08;;;;;;;2.97;2.15;;;19.00;99.90;;;;;;5112431;28;20207;-69
2023/04/20 09:03:36;;;;;;;3.25;2.95;;;19.10;99.90;;;;;;5112338;28;20205;-78
2023/04/20 09:06:04;;;;;;;2.25;2.03;;;21.50;99.90;;;;;;5111917;28;20259;-75
2023/04/20 09:08:37;;;;;;;5.75;2.42;;;22.00;99.90;;;;;;5112009;28;20205;-72
2023/04/20 09:11:04;;;;;;;6.30;2.67;;;20.40;99.90;;;;;;5111940;28;20212;-73
2023/04/20 09:13:31;;;;;;;3.45;2.45;;;20.10;99.90;;;;;;5111727;28;20197;-72
2023/04/20 09:16:09;;;;;;;3.55;2.80;;;19.20;99.90;;;;;;5111585;28;20224;-71
2023/04/20 09:18:36;;;;;;;3.40;2.53;;;18.90;99.90;;;;;;5112230;28;20205;-71
2023/04/20 09:21:08;;;;;;;2.72;2.53;;;19.40;99.90;;;;;;5111398;28;20228;-69
2023/04/20 09:23:36;;;;;;;4.30;2.78;;;19.80;99.90;;;;;;5111915;28;20243;-70
2023/04/20 09:26:04;;;;;;;10.00;2.95;;;21.70;99.90;;;;;;5111779;28;20633;-70
2023/04/20 09:28:37;;;;;;;7.95;2.90;;;22.50;99.90;;;;;;5111407;28;20236;-70
2023/04/20 09:31:04;;;;;;;6.50;2.88;;;20.80;99.90;;;;;;5111589;28;20212;-70
2023/04/20 09:33:34;;;;;;;10.00;3.92;;;20.40;99.90;;;;;;5111620;28;20228;-70
2023/04/20 09:36:04;;;;;;;3.40;3.05;;;20.70;99.90;;;;;;5111396;28;20208;-70
2023/04/20 09:38:31;;;;;;;4.45;2.92;;;21.00;99.90;;;;;;5111380;28;20563;-70
2023/04/20 09:41:01;;;;;;;7.82;2.92;;;21.40;99.90;;;;;;5111083;28;20243;-69
2023/04/20 09:43:30;;;;;;;5.05;3.70;;;21.60;99.90;;;;;;5111366;28;20579;-71
2023/04/20 09:45:57;;;;;;;2.58;2.28;;;22.20;99.90;;;;;;5110987;28;20253;-73
2023/04/20 09:48:24;;;;;;;3.92;3.00;;;22.80;99.90;;;;;;5111398;28;20265;-72
2023/04/20 09:50:52;;;;;;;4.25;2.55;;;22.40;99.90;;;;;;5110984;28;20733;-72
2023/04/20 09:53:19;;;;;;;5.70;3.40;;;21.80;99.90;;;;;;5111141;28;20552;-74
2023/04/20 09:55:48;;;;;;;7.68;2.63;;;23.00;99.90;;;;;;5110841;28;20197;-71
2023/04/20 09:58:19;;;;;;;4.22;2.65;;;25.90;99.90;;;;;;5111053;28;20233;-72
2023/04/20 10:00:46;;;;;;;2.38;2.17;;;25.50;99.90;;;;;;5110584;28;20680;-72
2023/04/20 10:03:16;;;;;;;8.70;2.95;;;28.30;99.90;;;;;;5111371;28;20205;-72
2023/04/20 10:05:43;;;;;;;3.15;2.20;;;30.90;99.90;;;;;;5111098;28;20235;-71
2023/04/20 10:08:10;;;;;;;2.75;2.08;;;27.50;99.90;;;;;;5111350;28;20244;-71
2023/04/20 10:10:45;;;;;;;11.32;2.53;;;23.90;99.90;;;;;;5111434;28;20240;-71
2023/04/20 10:13:12;;;;;;;4.53;2.45;;;24.50;99.90;;;;;;5110932;28;20206;-74
2023/04/20 10:15:42;;;;;;;3.10;2.05;;;24.00;99.90;;;;;;5111369;28;20208;-71
2023/04/20 10:18:19;;;;;;;4.10;3.30;;;23.80;99.90;;;;;;5111328;28;20275;-75
2023/04/20 10:20:46;;;;;;;3.53;1.60;;;23.40;99.90;;;;;;5109631;28;20658;-74
2023/04/20 10:23:15;;;;;;;3.33;2.15;;;23.10;99.90;;;;;;5111149;28;20197;-73
2023/04/20 10:25:44;;;;;;;7.07;2.33;;;24.00;99.90;;;;;;5110144;28;20333;-75
2023/04/20 10:28:11;;;;;;;2.20;1.60;;;26.00;99.90;;;;;;5111066;28;20228;-74
2023/04/20 10:30:50;;;;;;;2.60;2.40;;;24.70;99.90;;;;;;5111466;28;20212;-73
2023/04/20 10:33:17;;;;;;;2.30;1.80;;;26.40;99.90;;;;;;5111146;28;20228;-74
2023/04/20 10:35:49;;;;;;;7.20;2.08;;;25.10;99.90;;;;;;5110625;28;20204;-77
2023/04/20 10:38:27;;;;;;;2.38;2.05;;;23.90;99.90;;;;;;5110969;28;20231;-72
2023/04/20 10:40:54;;;;;;;8.40;2.30;;;23.20;99.90;;;;;;5110416;28;20211;-74
2023/04/20 10:43:22;;;;;;;4.45;2.67;;;22.90;99.90;;;;;;5110397;28;20240;-72
2023/04/20 10:45:51;;;;;;;2.42;1.52;;;22.90;99.90;;;;;;5110350;28;20696;-75
2023/04/20 10:48:18;;;;;;;3.03;1.85;;;22.30;99.90;;;;;;5110721;28;20560;-71
2023/04/20 10:50:45;;;;;;;2.40;1.95;;;22.40;99.90;;;;;;5110263;28;20240;-72
2023/04/20 10:53:22;;;;;;;3.97;1.85;;;22.60;99.90;;;;;;5110823;28;20212;-74
2023/04/20 10:55:58;;;;;;;2.20;1.45;;;22.80;99.90;;;;;;5110174;28;20240;-72
2023/04/20 10:58:26;;;;;;;2.20;1.40;;;22.90;99.90;;;;;;5110644;28;20239;-73
2023/04/20 11:01:02;;;;;;;2.80;1.88;;;22.80;99.90;;;;;;5110433;28;20239;-72
2023/04/20 11:03:29;;;;;;;4.28;2.10;;;23.00;99.90;;;;;;5110832;28;20231;-69
2023/04/20 11:06:00;;;;;;;5.13;1.80;;;22.80;99.90;;;;;;5110488;28;20227;-71
2023/04/20 11:08:37;;;;;;;2.05;1.85;;;23.00;99.90;;;;;;5114140;28;20278;-73
2023/04/20 11:11:04;;;;;;;4.45;1.88;;;23.00;99.90;;;;;;5113796;28;20691;-73
2023/04/20 11:13:32;;;;;;;2.45;1.85;;;23.00;99.90;;;;;;5114327;28;20236;-73
2023/04/20 11:16:09;;;;;;;1.45;1.35;;;23.10;99.90;;;;;;5113263;27;20247;-76
2023/04/20 11:18:36;;;;;;;2.60;2.40;;;23.40;99.90;;;;;;5114329;28;20246;-72
2023/04/20 11:21:03;;;;;;;2.65;2.15;;;23.30;99.90;;;;;;5113955;28;20219;-76
2023/04/20 11:23:38;;;;;;;2.75;2.00;;;23.20;99.90;;;;;;5112261;27;20236;-74
2023/04/20 11:26:05;;;;;;;2.45;1.80;;;23.10;99.90;;;;;;5111384;28;20202;-74
2023/04/20 11:28:33;;;;;;;2.45;2.20;;;23.30;99.90;;;;;;5113892;28;20217;-75
2023/04/20 11:31:02;;;;;;;3.92;1.67;;;23.20;99.90;;;;;;5118330;27;20205;-75
2023/04/20 11:33:30;;;;;;;1.92;1.83;;;23.10;99.90;;;;;;5113942;28;20282;-76
2023/04/20 11:35:58;;;;;;;3.25;1.75;;;23.20;99.90;;;;;;5121900;27;20687;-75
2023/04/20 11:38:29;;;;;;;2.30;1.90;;;23.00;99.90;;;;;;5120320;27;20311;-75
2023/04/20 11:40:59;;;;;;;1.92;1.80;;;22.90;99.90;;;;;;5118370;27;20212;-76
2023/04/20 11:43:26;;;;;;;3.25;1.70;;;23.10;99.90;;;;;;5113639;28;20209;-74
2023/04/20 11:45:53;;;;;;;2.42;2.03;;;23.00;99.90;;;;;;5113416;28;20201;-72
2023/04/20 11:48:21;;;;;;;8.30;3.03;;;22.90;99.90;;;;;;5113647;28;20228;-70
2023/04/20 11:50:48;;;;;;;2.53;1.95;;;23.00;99.90;;;;;;5112968;28;20201;-74
2023/04/20 11:53:16;;;;;;;2.38;1.60;;;23.20;99.90;;;;;;5113294;28;20240;-72
2023/04/20 11:55:43;;;;;;;6.30;2.30;;;23.40;99.90;;;;;;5111504;28;20251;-71
2023/04/20 11:58:09;;;;;;;2.58;1.83;;;23.70;99.90;;;;;;5113132;28;20358;-71
2023/04/20 12:00:36;;;;;;;1.85;1.70;;;24.10;99.90;;;;;;5113757;28;20232;-73
2023/04/20 12:03:03;;;;;;;3.20;1.75;;;23.90;99.90;;;;;;5112750;28;20293;-73
2023/04/20 12:05:32;;;;;;;3.10;1.60;;;24.00;99.90;;;;;;5112539;28;20236;-75
2023/04/20 12:07:58;;;;;;;3.05;2.42;;;23.30;99.90;;;;;;5112332;28;20706;-76
2023/04/20 12:10:25;;;;;;;12.15;2.38;;;23.10;99.90;;;;;;5113155;28;20297;-75
2023/04/20 12:12:52;;;;;;;2.90;1.90;;;23.70;99.90;;;;;;5112364;28;20247;-76
2023/04/20 12:15:19;;;;;;;2.05;1.80;;;24.00;99.90;;;;;;5112987;28;20235;-76
2023/04/20 12:17:46;;;;;;;2.20;1.88;;;24.20;99.90;;;;;;5111948;28;20247;-78
2023/04/20 12:20:13;;;;;;;3.90;2.03;;;24.30;99.90;;;;;;5118918;27;20228;-76
2023/04/20 12:22:42;;;;;;;2.58;1.75;;;24.20;99.90;;;;;;5133142;27;20639;-72
2023/04/20 12:25:09;;;;;;;4.03;2.40;;;24.00;99.90;;;;;;5133519;27;20236;-71
2023/04/20 12:27:36;;;;;;;4.88;2.25;;;24.10;99.90;;;;;;5133450;27;20240;-79
2023/04/20 12:30:04;;;;;;;3.53;1.77;;;23.70;99.90;;;;;;5132981;27;20218;-74
2023/04/20 12:32:32;;;;;;;4.45;1.75;;;23.50;99.90;;;;;;5133248;27;20195;-77
2023/04/20 12:34:59;;;;;;;2.28;1.95;;;23.40;99.90;;;;;;5132772;27;20204;-73
2023/04/20 12:37:27;;;;;;;1.90;1.70;;;24.20;99.90;;;;;;5133000;27;20235;-72
2023/04/20 12:39:56;;;;;;;2.22;1.95;;;24.20;99.90;;;;;;5132875;27;20197;-73
2023/04/20 12:42:23;;;;;;;3.75;2.53;;;23.90;99.90;;;;;;5133123;27;20211;-74
2023/04/20 12:44:52;;;;;;;2.67;1.83;;;23.90;99.90;;;;;;5132652;27;20675;-72
2023/04/20 12:47:19;;;;;;;1.92;1.80;;;23.80;99.90;;;;;;5132976;27;20196;-75
2023/04/20 12:49:46;;;;;;;3.90;1.60;;;24.10;99.90;;;;;;5132625;27;20204;-75